Time;durP1;ratioP1;P1;durP2;ratioP2;P2;SDS_P1;SDS_P2;PMS_P1;PMS_P2;Temp;Humidity;BMP_temperature;BMP_pressure;BME280_temperature;BME280_humidity;BME280_pressure;Samples;Min_cycle;Max_cycle;Signal;HPM_P1;HPM_P2
2022/10/05 00:01:48;;;;;;;12.32;7.60;;;15.30;99.90;;;;;;4838114;29;20058;-65
2022/10/05 00:04:27;;;;;;;14.55;7.38;;;15.40;99.90;;;;;;4816963;29;20045;-67
2022/10/05 00:07:07;;;;;;;13.05;7.68;;;15.40;99.90;;;;;;4840892;29;20098;-67
2022/10/05 00:09:33;;;;;;;10.80;6.88;;;15.30;99.90;;;;;;4830192;29;20050;-67
2022/10/05 00:12:07;;;;;;;12.70;7.03;;;15.30;99.90;;;;;;4835787;29;20471;-64
2022/10/05 00:14:34;;;;;;;14.93;6.93;;;15.40;99.90;;;;;;4810622;29;20402;-66
2022/10/05 00:17:13;;;;;;;15.57;7.40;;;15.30;99.90;;;;;;4837850;29;20046;-66
2022/10/05 00:19:39;;;;;;;11.57;6.93;;;15.30;99.90;;;;;;4842012;29;20430;-66
2022/10/05 00:22:07;;;;;;;14.93;7.18;;;15.30;99.90;;;;;;4840239;29;20061;-66
2022/10/05 00:24:33;;;;;;;9.80;6.82;;;15.40;99.90;;;;;;4836967;29;20054;-66
2022/10/05 00:27:02;;;;;;;11.48;6.72;;;15.30;99.90;;;;;;4840800;29;20119;-68
2022/10/05 00:29:30;;;;;;;14.27;6.68;;;15.30;99.90;;;;;;4816242;29;20058;-67
2022/10/05 00:31:55;;;;;;;8.70;6.80;;;15.30;99.90;;;;;;4829428;29;20073;-66
2022/10/05 00:34:21;;;;;;;8.80;6.75;;;15.30;99.90;;;;;;4850151;29;20042;-67
2022/10/05 00:36:47;;;;;;;12.70;6.97;;;15.30;99.90;;;;;;4835672;29;20126;-65
2022/10/05 00:39:12;;;;;;;11.38;7.05;;;15.30;99.90;;;;;;4833120;29;20042;-66
2022/10/05 00:41:58;;;;;;;9.32;6.75;;;15.30;99.90;;;;;;4824048;29;20056;-67
2022/10/05 00:44:38;;;;;;;13.95;7.20;;;15.30;99.90;;;;;;4842776;29;20065;-66
2022/10/05 00:47:08;;;;;;;11.85;6.85;;;15.30;99.90;;;;;;4823043;29;20133;-66
2022/10/05 00:49:57;;;;;;;14.77;6.50;;;15.30;99.90;;;;;;4843119;29;20148;-66
2022/10/05 00:52:37;;;;;;;16.90;6.80;;;15.30;99.90;;;;;;4832544;29;20119;-66
2022/10/05 00:55:12;;;;;;;7.60;6.00;;;15.30;99.90;;;;;;4840034;29;20067;-68
2022/10/05 00:58:06;;;;;;;10.15;5.45;;;15.30;99.90;;;;;;4835094;29;20069;-66
2022/10/05 01:00:37;;;;;;;10.07;6.20;;;15.30;99.90;;;;;;4840389;29;20079;-67
2022/10/05 01:03:03;;;;;;;10.52;5.45;;;15.20;99.90;;;;;;4831479;29;20125;-67
2022/10/05 01:05:41;;;;;;;9.32;5.10;;;15.20;99.90;;;;;;4843140;29;20132;-65
2022/10/05 01:08:31;;;;;;;11.18;5.85;;;15.30;99.90;;;;;;4843572;29;20494;-67
2022/10/05 01:11:15;;;;;;;7.80;5.50;;;15.20;99.90;;;;;;4831380;29;20046;-65
2022/10/05 01:14:07;;;;;;;9.43;5.53;;;15.20;99.90;;;;;;4831601;29;20492;-66
2022/10/05 01:16:32;;;;;;;9.57;4.80;;;15.20;99.90;;;;;;4837770;29;20046;-66
2022/10/05 01:19:18;;;;;;;8.25;4.30;;;15.20;99.90;;;;;;4842136;29;20074;-67
2022/10/05 01:21:52;;;;;;;7.90;4.63;;;15.20;99.90;;;;;;4844010;29;20050;-68
2022/10/05 01:24:38;;;;;;;9.35;4.60;;;15.20;99.90;;;;;;4823295;29;20378;-67
2022/10/05 01:27:28;;;;;;;8.98;4.50;;;15.20;99.90;;;;;;4841474;29;20056;-66
2022/10/05 01:29:57;;;;;;;7.07;4.30;;;15.20;99.90;;;;;;4839010;29;20054;-66
2022/10/05 01:32:40;;;;;;;8.13;4.47;;;15.30;99.90;;;;;;4839054;29;20065;-66
2022/10/05 03:37:03;;;;;;;7.82;4.80;;;15.20;99.90;;;;;;4851236;29;20551;-65
2022/10/05 03:39:38;;;;;;;11.10;4.68;;;15.20;99.90;;;;;;4842817;29;20109;-65
2022/10/05 03:42:36;;;;;;;6.90;4.78;;;15.20;99.90;;;;;;4859191;29;20053;-63
2022/10/05 03:45:05;;;;;;;7.78;4.35;;;15.20;99.90;;;;;;4859772;29;20049;-64
2022/10/05 03:47:55;;;;;;;8.40;4.35;;;15.20;99.90;;;;;;4853366;29;20072;-65
2022/10/05 03:50:41;;;;;;;9.75;4.05;;;15.10;99.90;;;;;;4858204;29;20133;-64
2022/10/05 03:53:20;;;;;;;9.50;4.18;;;15.20;99.90;;;;;;4858304;29;20400;-65
2022/10/05 03:55:58;;;;;;;14.15;4.43;;;15.10;99.90;;;;;;4859854;29;20150;-64
2022/10/05 03:58:36;;;;;;;9.68;4.38;;;15.20;99.90;;;;;;4853439;29;20052;-64
2022/10/05 04:01:06;;;;;;;8.55;4.32;;;15.20;99.90;;;;;;4853790;29;20049;-64
2022/10/05 04:03:45;;;;;;;6.18;4.18;;;15.20;99.90;;;;;;4857344;29;20041;-64
2022/10/05 04:06:17;;;;;;;;;;;15.20;99.90;;;;;;4852105;29;20042;-64
2022/10/05 04:09:07;;;;;;;6.55;4.28;;;15.10;99.90;;;;;;4852619;29;19928;-64
2022/10/05 04:11:41;;;;;;;6.45;4.22;;;15.10;99.90;;;;;;4855084;29;20049;-62
2022/10/05 04:14:16;;;;;;;9.57;4.35;;;15.00;99.90;;;;;;4839659;29;20058;-66
2022/10/05 04:16:48;;;;;;;11.05;4.70;;;15.10;99.90;;;;;;4817802;29;20507;-65
2022/10/05 04:19:31;;;;;;;9.43;4.80;;;15.10;99.90;;;;;;4858627;29;20084;-65
2022/10/05 04:22:05;;;;;;;9.30;4.95;;;15.10;99.90;;;;;;4856313;29;20053;-65
2022/10/05 04:24:44;;;;;;;8.80;4.90;;;15.10;99.90;;;;;;4858831;29;20053;-64
2022/10/05 04:27:11;;;;;;;;;;;15.10;99.90;;;;;;4841225;29;20041;-65
2022/10/05 04:30:01;;;;;;;9.15;5.03;;;15.10;99.90;;;;;;4839862;29;19932;-65
2022/10/05 04:32:43;;;;;;;7.85;5.03;;;15.10;99.90;;;;;;4852885;29;20113;-64
2022/10/05 04:35:37;;;;;;;8.38;5.47;;;15.10;99.90;;;;;;4856027;29;21547;-65
2022/10/05 04:38:31;;;;;;;10.65;4.68;;;15.10;99.90;;;;;;4852465;29;20978;-68
2022/10/05 04:41:24;;;;;;;9.98;6.30;;;15.10;99.90;;;;;;4858472;29;20385;-66
2022/10/05 04:44:31;;;;;;;9.38;5.13;;;15.10;99.90;;;;;;4850827;29;20056;-65
2022/10/05 04:47:26;;;;;;;10.50;4.75;;;15.10;99.90;;;;;;4854241;29;20488;-66
2022/10/05 04:50:10;;;;;;;10.55;5.03;;;15.10;99.90;;;;;;4843590;29;20409;-64
2022/10/05 04:52:50;;;;;;;10.10;5.07;;;15.10;99.90;;;;;;4821234;29;20042;-65
2022/10/05 04:55:30;;;;;;;9.38;4.90;;;15.00;99.90;;;;;;4856811;29;20050;-65
2022/10/05 04:58:18;;;;;;;11.40;5.53;;;15.00;99.90;;;;;;4858201;29;20068;-65
2022/10/05 05:00:49;;;;;;;10.77;5.10;;;15.00;99.90;;;;;;4838964;29;20045;-64
2022/10/05 05:03:45;;;;;;;10.70;5.55;;;15.00;99.90;;;;;;4855679;29;20045;-65
2022/10/05 05:06:50;;;;;;;10.45;5.85;;;15.00;99.90;;;;;;4851965;29;20038;-65
2022/10/05 05:09:26;;;;;;;12.27;5.75;;;15.00;99.90;;;;;;4847395;29;20081;-64
2022/10/05 05:12:03;;;;;;;12.95;6.55;;;15.00;99.90;;;;;;4851361;29;20050;-65
2022/10/05 05:15:01;;;;;;;10.35;6.03;;;15.00;99.90;;;;;;4841294;29;20045;-66
2022/10/05 05:18:02;;;;;;;11.93;6.45;;;15.00;99.90;;;;;;4851776;29;20045;-64
2022/10/05 05:20:53;;;;;;;12.90;7.32;;;15.00;99.90;;;;;;4855440;29;20052;-65
2022/10/05 05:23:47;;;;;;;9.35;6.10;;;15.00;99.90;;;;;;4851135;29;20070;-64
2022/10/05 05:26:22;;;;;;;12.68;6.75;;;15.00;99.90;;;;;;4856293;29;20094;-63
2022/10/05 05:28:51;;;;;;;12.40;7.05;;;15.00;99.90;;;;;;4844045;29;20401;-65
2022/10/05 05:31:38;;;;;;;10.77;7.13;;;15.00;99.90;;;;;;4858665;29;20045;-65
2022/10/05 05:34:22;;;;;;;10.50;6.88;;;15.00;99.90;;;;;;4861731;29;20114;-66
2022/10/05 05:36:58;;;;;;;14.05;6.93;;;15.00;99.90;;;;;;4860691;29;20136;-64
2022/10/05 05:39:28;;;;;;;15.02;7.30;;;15.00;99.90;;;;;;4855091;29;20052;-64
2022/10/05 05:41:56;;;;;;;11.73;6.78;;;15.00;99.90;;;;;;4858339;29;20054;-64
2022/10/05 05:44:28;;;;;;;10.63;6.45;;;15.00;99.90;;;;;;4857101;29;20054;-65
2022/10/05 05:47:17;;;;;;;13.85;6.47;;;15.00;99.90;;;;;;4855775;29;20121;-64
2022/10/05 05:49:55;;;;;;;10.43;6.50;;;15.00;99.90;;;;;;4837491;29;20053;-65
2022/10/05 05:52:27;;;;;;;13.48;6.45;;;15.00;99.90;;;;;;4843457;29;20049;-64
2022/10/05 05:55:19;;;;;;;14.85;6.55;;;15.00;99.90;;;;;;4858904;29;20116;-65
2022/10/05 05:57:59;;;;;;;12.07;6.70;;;15.00;99.90;;;;;;4843730;29;20119;-65
2022/10/05 06:00:36;;;;;;;13.90;6.30;;;15.00;99.90;;;;;;4852229;29;20081;-65
2022/10/05 06:03:43;;;;;;;12.75;5.97;;;15.10;99.90;;;;;;4860340;29;20054;-64
2022/10/05 06:06:12;;;;;;;21.80;6.93;;;15.00;99.90;;;;;;4832650;29;20057;-64
2022/10/05 06:08:52;;;;;;;8.82;6.22;;;15.00;99.90;;;;;;4858349;29;20054;-65
2022/10/05 06:11:49;;;;;;;12.65;6.43;;;15.00;99.90;;;;;;4859141;29;20136;-65
2022/10/05 06:14:43;;;;;;;8.93;5.70;;;15.00;99.90;;;;;;4858825;29;20102;-66
2022/10/05 06:17:43;;;;;;;9.85;5.88;;;15.00;99.90;;;;;;4836554;29;20083;-66
2022/10/05 06:20:27;;;;;;;16.15;6.60;;;15.00;99.90;;;;;;4851514;29;20049;-65
2022/10/05 06:22:56;;;;;;;8.85;5.72;;;15.00;99.90;;;;;;4856691;29;20049;-66
2022/10/05 06:25:43;;;;;;;9.57;6.22;;;15.00;99.90;;;;;;4855025;29;20377;-66
2022/10/05 06:28:15;;;;;;;8.85;5.90;;;15.00;99.90;;;;;;4844786;29;20052;-65
2022/10/05 06:30:52;;;;;;;9.75;5.70;;;15.00;99.90;;;;;;4846072;29;20049;-64
2022/10/05 06:33:45;;;;;;;11.85;5.72;;;15.00;99.90;;;;;;4852743;29;20471;-65
2022/10/05 06:36:19;;;;;;;10.82;5.57;;;15.00;99.90;;;;;;4842405;29;20054;-65
2022/10/05 06:39:22;;;;;;;11.13;5.95;;;15.10;99.90;;;;;;4837978;29;20055;-65
2022/10/05 06:42:06;;;;;;;10.15;6.22;;;15.10;99.90;;;;;;4859785;29;20056;-65
2022/10/05 06:44:47;;;;;;;9.00;5.68;;;15.10;99.90;;;;;;4859569;29;20407;-64
2022/10/05 06:47:27;;;;;;;10.68;5.68;;;15.10;99.90;;;;;;4832452;29;20195;-66
2022/10/05 06:50:12;;;;;;;15.23;6.55;;;15.10;99.90;;;;;;4857384;29;20110;-64
2022/10/05 06:52:56;;;;;;;13.55;5.60;;;15.10;99.90;;;;;;4855625;29;20045;-66
2022/10/05 06:55:49;;;;;;;8.95;5.28;;;15.20;99.90;;;;;;4855160;29;20048;-66
2022/10/05 06:58:34;;;;;;;8.60;5.03;;;15.10;99.90;;;;;;4853462;29;20049;-67
2022/10/05 07:01:14;;;;;;;9.18;4.97;;;15.10;99.90;;;;;;4845843;29;20052;-65
2022/10/05 07:03:58;;;;;;;7.20;5.25;;;15.10;99.90;;;;;;4855034;29;20056;-64
2022/10/05 07:06:44;;;;;;;8.85;5.32;;;15.10;99.90;;;;;;4857888;29;20508;-64
2022/10/05 07:09:28;;;;;;;8.70;5.38;;;15.10;99.90;;;;;;4860890;29;20049;-65
2022/10/05 07:11:54;;;;;;;11.20;5.60;;;15.10;99.90;;;;;;4856783;29;20050;-64
2022/10/05 07:14:28;;;;;;;11.43;5.22;;;15.20;99.90;;;;;;4858452;29;20045;-64
2022/10/05 07:17:18;;;;;;;8.93;5.03;;;15.20;99.90;;;;;;4858535;29;20046;-64
2022/10/05 07:19:56;;;;;;;12.45;5.20;;;15.20;99.90;;;;;;4838134;29;20444;-64
2022/10/05 07:22:43;;;;;;;8.07;5.05;;;15.20;99.90;;;;;;4859722;29;20042;-63
2022/10/05 07:25:20;;;;;;;8.25;4.88;;;15.20;99.90;;;;;;4856210;29;20513;-64
2022/10/05 07:28:01;;;;;;;7.75;5.00;;;15.20;99.90;;;;;;4859252;29;20042;-65
2022/10/05 07:30:29;;;;;;;10.07;5.07;;;15.30;99.90;;;;;;4860051;29;20129;-66
2022/10/05 07:33:00;;;;;;;8.45;4.70;;;15.20;99.90;;;;;;4853472;29;20057;-66
2022/10/05 07:39:15;;;;;;;9.63;4.70;;;15.30;99.90;;;;;;4803117;29;20398;-65
2022/10/05 07:41:46;;;;;;;8.85;4.40;;;15.30;99.90;;;;;;4846412;29;20057;-65
2022/10/05 07:44:21;;;;;;;8.52;4.88;;;15.40;99.90;;;;;;4857771;29;20113;-67
2022/10/05 07:46:59;;;;;;;6.93;4.00;;;15.40;99.90;;;;;;4857187;29;20045;-65
2022/10/05 07:49:40;;;;;;;6.38;4.35;;;15.40;99.90;;;;;;4853066;29;20054;-65
2022/10/05 07:52:23;;;;;;;6.30;4.07;;;15.50;99.90;;;;;;4855421;29;20056;-66
2022/10/05 07:55:17;;;;;;;9.02;4.32;;;15.50;99.90;;;;;;4854952;29;20080;-66
2022/10/05 07:57:54;;;;;;;6.90;4.03;;;15.50;99.90;;;;;;4855537;29;20433;-65
2022/10/05 08:00:23;;;;;;;12.80;3.72;;;15.60;99.90;;;;;;4855209;29;20128;-66
2022/10/05 08:02:57;;;;;;;6.78;4.32;;;15.60;99.90;;;;;;4849161;29;20131;-67
2022/10/05 08:05:29;;;;;;;5.43;3.40;;;15.60;99.90;;;;;;4856201;29;20554;-64
2022/10/05 08:08:23;;;;;;;4.93;3.35;;;15.60;99.90;;;;;;4830387;29;20067;-65
2022/10/05 08:11:15;;;;;;;7.15;3.13;;;15.60;99.90;;;;;;4852676;29;20127;-65
2022/10/05 08:13:54;;;;;;;5.43;3.00;;;15.60;99.90;;;;;;4857180;29;20474;-63
2022/10/05 08:16:22;;;;;;;;;;;15.60;99.90;;;;;;4849779;29;20041;-65
2022/10/05 08:18:55;;;;;;;7.05;2.90;;;15.70;99.90;;;;;;4853151;29;19924;-66
2022/10/05 08:21:35;;;;;;;5.10;2.95;;;15.60;99.90;;;;;;4855312;29;20045;-64
2022/10/05 08:24:30;;;;;;;5.32;2.60;;;15.70;99.90;;;;;;4842386;29;20057;-66
2022/10/05 08:27:07;;;;;;;7.82;2.70;;;15.70;99.90;;;;;;4849998;29;20038;-64
2022/10/05 08:29:46;;;;;;;6.70;2.40;;;15.80;99.90;;;;;;4856376;29;20046;-66
2022/10/05 08:32:24;;;;;;;3.78;2.00;;;15.80;99.90;;;;;;4831887;29;20057;-67
2022/10/05 08:35:02;;;;;;;3.00;1.92;;;15.90;99.90;;;;;;4855681;29;20050;-65
2022/10/05 08:37:38;;;;;;;8.27;2.45;;;16.00;99.90;;;;;;4855256;29;20053;-65
2022/10/05 08:40:34;;;;;;;6.53;2.00;;;16.00;99.90;;;;;;4851571;29;20048;-65
2022/10/05 08:43:20;;;;;;;3.63;2.10;;;16.10;99.90;;;;;;4849210;29;20049;-68
2022/10/05 08:46:13;;;;;;;3.67;2.20;;;16.20;99.90;;;;;;4835304;29;20472;-66
2022/10/05 08:49:05;;;;;;;8.20;2.55;;;16.20;99.90;;;;;;4855312;29;20105;-65
2022/10/05 08:51:55;;;;;;;5.97;2.15;;;16.30;99.90;;;;;;4852377;29;20053;-65
2022/10/05 08:54:42;;;;;;;5.53;2.50;;;16.40;99.90;;;;;;4858445;29;20395;-65
2022/10/05 08:57:26;;;;;;;2.83;2.03;;;16.50;99.90;;;;;;4857041;29;20492;-66
2022/10/05 09:00:11;;;;;;;6.22;2.22;;;16.50;99.90;;;;;;4856873;29;20042;-64
2022/10/05 09:02:40;;;;;;;6.15;2.47;;;16.60;99.90;;;;;;4860107;29;20055;-63
2022/10/05 09:05:31;;;;;;;5.95;2.50;;;16.70;99.90;;;;;;4856180;29;20101;-65
2022/10/05 09:08:21;;;;;;;7.22;2.47;;;16.70;99.90;;;;;;4855204;29;20046;-65
2022/10/05 09:10:58;;;;;;;7.15;2.65;;;16.80;99.90;;;;;;4860089;29;20059;-65
2022/10/05 09:14:09;;;;;;;5.18;2.60;;;16.80;99.90;;;;;;4862835;29;20098;-65
2022/10/05 09:16:38;;;;;;;;;;;16.90;99.90;;;;;;4855253;29;20062;-64
2022/10/05 09:19:22;;;;;;;5.97;2.80;;;17.00;99.90;;;;;;4842326;29;20294;-65
2022/10/05 09:22:25;;;;;;;4.80;2.60;;;17.10;99.90;;;;;;4860642;29;20453;-64
2022/10/05 09:24:56;;;;;;;6.63;2.67;;;17.10;99.90;;;;;;4862757;29;20041;-64
2022/10/05 09:27:48;;;;;;;6.53;2.40;;;17.20;99.90;;;;;;4862364;29;20561;-66
2022/10/05 09:31:01;;;;;;;6.00;2.85;;;17.30;99.90;;;;;;4855011;29;20060;-66
2022/10/05 09:33:53;;;;;;;5.57;2.78;;;17.30;99.90;;;;;;4803745;29;20074;-64
2022/10/05 09:36:46;;;;;;;10.90;3.05;;;17.30;99.90;;;;;;4802862;29;20051;-65
2022/10/05 09:39:26;;;;;;;7.82;2.88;;;17.30;99.90;;;;;;4828254;29;20092;-65
2022/10/05 09:42:13;;;;;;;7.50;2.97;;;17.40;99.90;;;;;;4841289;29;20137;-64
2022/10/05 09:45:27;;;;;;;6.50;2.80;;;17.50;99.90;;;;;;4841860;29;20077;-66
2022/10/05 09:48:42;;;;;;;8.00;2.90;;;17.50;99.90;;;;;;4837758;29;20551;-64
2022/10/05 09:51:43;;;;;;;8.02;3.13;;;17.60;99.90;;;;;;4837955;29;20057;-64
2022/10/05 09:55:01;;;;;;;7.07;2.97;;;17.60;99.90;;;;;;4839964;29;20046;-63
2022/10/05 09:57:51;;;;;;;12.50;3.17;;;17.70;99.90;;;;;;4815216;29;20124;-65
2022/10/05 10:00:41;;;;;;;11.00;2.90;;;17.70;99.90;;;;;;4824219;29;20110;-66
2022/10/05 10:03:32;;;;;;;15.63;4.00;;;17.70;99.90;;;;;;4833401;29;20141;-63
2022/10/05 10:06:24;;;;;;;6.45;3.03;;;17.70;99.90;;;;;;4841901;29;20137;-64
2022/10/05 10:09:25;;;;;;;9.70;3.08;;;17.60;99.90;;;;;;4825517;29;20137;-65
2022/10/05 10:12:31;;;;;;;7.60;3.03;;;17.60;99.90;;;;;;4835396;29;20063;-63
2022/10/05 10:15:33;;;;;;;6.72;2.75;;;17.60;99.90;;;;;;4833585;29;20412;-63
2022/10/05 10:18:00;;;;;;;6.75;3.10;;;17.60;99.90;;;;;;4841611;29;20178;-64
2022/10/05 10:20:54;;;;;;;5.10;3.03;;;17.50;99.90;;;;;;4838996;29;20053;-63
2022/10/05 10:23:36;;;;;;;6.20;2.65;;;17.60;99.90;;;;;;4825325;29;20148;-65
2022/10/05 10:26:29;;;;;;;9.88;2.95;;;17.60;99.90;;;;;;4840519;29;20150;-67
2022/10/05 10:29:33;;;;;;;9.40;3.17;;;17.60;99.90;;;;;;4837136;29;20068;-65
2022/10/05 10:32:02;;;;;;;7.20;2.53;;;17.50;99.90;;;;;;4815987;29;20075;-63
2022/10/05 10:34:39;;;;;;;10.35;2.80;;;17.50;99.90;;;;;;4837929;29;20049;-65
2022/10/05 10:37:44;;;;;;;5.28;2.80;;;17.40;99.90;;;;;;4852981;29;20046;-65
2022/10/05 10:40:37;;;;;;;7.05;3.05;;;17.30;99.90;;;;;;4811938;29;20078;-64
2022/10/05 10:43:30;;;;;;;4.72;2.63;;;17.30;99.90;;;;;;4813286;29;20047;-63
2022/10/05 10:45:56;;;;;;;8.32;2.70;;;17.20;99.90;;;;;;4834898;29;20062;-65
2022/10/05 10:48:27;;;;;;;11.63;3.33;;;17.20;99.90;;;;;;4841388;29;20041;-65
2022/10/05 10:51:01;;;;;;;6.13;2.85;;;17.10;99.90;;;;;;4858314;29;20140;-64
2022/10/05 10:53:56;;;;;;;8.00;3.30;;;17.10;99.90;;;;;;4842426;29;20053;-64
2022/10/05 10:56:27;;;;;;;9.23;2.92;;;17.10;99.90;;;;;;4858334;29;20411;-65
2022/10/05 10:59:22;;;;;;;6.80;2.63;;;17.00;99.90;;;;;;4857957;29;20057;-65
2022/10/05 11:01:50;;;;;;;7.90;2.92;;;17.00;99.90;;;;;;4854987;29;20048;-66
2022/10/05 11:04:52;;;;;;;4.15;2.70;;;17.00;99.90;;;;;;4854952;29;20764;-64
2022/10/05 11:07:57;;;;;;;4.03;2.65;;;16.90;99.90;;;;;;4826403;29;20046;-66
2022/10/05 11:10:37;;;;;;;9.93;2.95;;;16.90;99.90;;;;;;4852080;29;20492;-64
2022/10/05 11:13:20;;;;;;;6.30;3.13;;;16.90;99.90;;;;;;4835593;29;20049;-63
2022/10/05 11:16:06;;;;;;;4.97;2.90;;;16.90;99.90;;;;;;4857328;29;20069;-64
2022/10/05 11:18:51;;;;;;;7.13;2.95;;;16.90;99.90;;;;;;4833694;29;20081;-64
2022/10/05 11:21:24;;;;;;;10.10;3.38;;;16.90;99.90;;;;;;4853279;29;20424;-65
2022/10/05 11:24:02;;;;;;;6.22;3.20;;;16.90;99.90;;;;;;4849293;29;20053;-62
2022/10/05 11:26:40;;;;;;;6.77;3.20;;;16.90;99.90;;;;;;4853756;29;20052;-69
2022/10/05 11:29:16;;;;;;;5.70;2.85;;;16.90;99.90;;;;;;4854772;29;20812;-63
2022/10/05 11:32:23;;;;;;;4.75;3.22;;;16.90;99.90;;;;;;4855857;29;20503;-65
2022/10/05 11:35:02;;;;;;;5.47;3.20;;;16.90;99.90;;;;;;4851020;29;20149;-62
2022/10/05 11:37:54;;;;;;;6.35;3.03;;;16.90;99.90;;;;;;4850204;29;20053;-63
2022/10/05 11:40:30;;;;;;;8.02;3.50;;;16.90;99.90;;;;;;4853484;29;20057;-65
2022/10/05 11:43:20;;;;;;;7.13;3.33;;;16.90;99.90;;;;;;4838198;29;20090;-64
2022/10/05 11:46:19;;;;;;;9.82;2.95;;;16.80;99.90;;;;;;4851211;29;20096;-63
2022/10/05 11:49:19;;;;;;;4.55;3.00;;;16.80;99.90;;;;;;4846449;29;20140;-63
2022/10/05 11:51:59;;;;;;;7.78;3.60;;;16.80;99.90;;;;;;4852465;29;20068;-64
2022/10/05 11:54:36;;;;;;;5.25;2.97;;;16.70;99.90;;;;;;4853660;29;20049;-64
2022/10/05 11:57:18;;;;;;;6.40;2.90;;;16.70;99.90;;;;;;4843867;29;20049;-64
2022/10/05 11:59:58;;;;;;;5.25;3.22;;;16.70;99.90;;;;;;4851412;29;20057;-66
2022/10/05 12:02:23;;;;;;;6.68;3.08;;;16.70;99.90;;;;;;4857174;29;20049;-64
2022/10/05 12:04:52;;;;;;;6.43;2.95;;;16.70;99.90;;;;;;4845435;29;20111;-63
2022/10/05 12:07:38;;;;;;;5.40;2.97;;;16.70;99.90;;;;;;4846651;29;20083;-63
2022/10/05 12:10:36;;;;;;;3.40;2.67;;;16.70;99.90;;;;;;4849932;29;20147;-63
2022/10/05 12:13:24;;;;;;;4.35;2.78;;;16.60;99.90;;;;;;4858081;29;20115;-64
2022/10/05 12:15:58;;;;;;;4.32;2.85;;;16.70;99.90;;;;;;4853256;29;20046;-63
2022/10/05 12:18:32;;;;;;;5.57;3.03;;;16.70;99.90;;;;;;4851744;29;20081;-62
2022/10/05 12:21:16;;;;;;;5.97;2.85;;;16.70;99.90;;;;;;4857035;29;20060;-65
2022/10/05 12:23:48;;;;;;;4.38;2.67;;;16.70;99.90;;;;;;4859153;29;20150;-62
2022/10/05 12:26:19;;;;;;;5.13;2.97;;;16.70;99.90;;;;;;4845701;29;20057;-63
2022/10/05 12:28:50;;;;;;;6.25;2.70;;;16.80;99.90;;;;;;4850504;29;20049;-65
2022/10/05 12:31:29;;;;;;;4.72;2.70;;;16.80;99.90;;;;;;4848640;29;20050;-64
2022/10/05 12:34:14;;;;;;;4.00;2.60;;;16.90;99.90;;;;;;4841018;29;20104;-63
2022/10/05 12:36:49;;;;;;;6.13;2.50;;;16.90;99.90;;;;;;4852168;29;20065;-62
2022/10/05 12:39:18;;;;;;;4.88;3.00;;;17.00;99.90;;;;;;4846156;29;20906;-62
2022/10/05 12:41:58;;;;;;;7.75;3.00;;;17.00;99.90;;;;;;4842220;29;20057;-63
2022/10/05 12:44:33;;;;;;;6.88;2.75;;;16.90;99.90;;;;;;4845727;29;20508;-63
2022/10/05 12:47:01;;;;;;;6.95;3.10;;;17.00;99.90;;;;;;4841514;29;20190;-62
2022/10/05 12:49:54;;;;;;;12.65;3.33;;;17.00;99.90;;;;;;4847817;29;20388;-62
2022/10/05 12:52:20;;;;;;;6.70;3.20;;;17.00;99.90;;;;;;4849958;29;20049;-63
2022/10/05 12:54:49;;;;;;;4.57;2.80;;;17.00;99.90;;;;;;4851586;29;20052;-62
2022/10/05 12:57:42;;;;;;;6.57;3.35;;;17.00;99.90;;;;;;4851093;29;20046;-63
2022/10/05 13:00:19;;;;;;;6.85;3.22;;;17.00;99.90;;;;;;4829464;29;20072;-62
2022/10/05 13:02:49;;;;;;;8.48;2.75;;;17.00;99.90;;;;;;4847281;29;20113;-63
2022/10/05 13:05:25;;;;;;;5.05;2.67;;;16.90;99.90;;;;;;4856381;29;20046;-63
2022/10/05 13:08:12;;;;;;;6.93;3.15;;;16.90;99.90;;;;;;4846189;29;20077;-63
2022/10/05 13:11:00;;;;;;;5.28;2.92;;;16.90;99.90;;;;;;4849498;29;20050;-67
2022/10/05 13:13:53;;;;;;;7.00;3.25;;;16.90;99.90;;;;;;4845732;29;20065;-64
2022/10/05 13:16:29;;;;;;;10.82;3.00;;;16.80;99.90;;;;;;4847269;29;20045;-62
2022/10/05 13:19:15;;;;;;;7.05;3.17;;;16.90;99.90;;;;;;4836630;29;20064;-65
2022/10/05 13:22:19;;;;;;;6.70;3.00;;;16.90;99.90;;;;;;4847224;29;21731;-64
2022/10/05 13:25:13;;;;;;;10.25;3.10;;;17.00;99.90;;;;;;4847089;29;20046;-63
2022/10/05 13:27:59;;;;;;;4.63;3.10;;;17.00;99.90;;;;;;4848506;29;20185;-64
2022/10/05 13:30:26;;;;;;;13.82;3.58;;;17.10;99.90;;;;;;4837180;29;20049;-63
2022/10/05 13:33:16;;;;;;;4.60;3.38;;;17.20;99.90;;;;;;4851826;29;20049;-62
2022/10/05 13:36:08;;;;;;;7.45;3.80;;;17.20;99.90;;;;;;4854492;29;20070;-66
2022/10/05 13:39:02;;;;;;;7.20;3.65;;;17.20;99.90;;;;;;4839515;29;20058;-64
2022/10/05 13:41:40;;;;;;;6.20;3.47;;;17.20;99.90;;;;;;4846689;29;20053;-63
2022/10/05 13:44:33;;;;;;;7.43;3.90;;;17.30;99.90;;;;;;4856663;29;20498;-63
2022/10/05 13:47:27;;;;;;;7.05;3.47;;;17.20;99.90;;;;;;4848448;29;20097;-63
2022/10/05 13:50:14;;;;;;;6.13;3.20;;;17.30;99.90;;;;;;4835748;29;20065;-64
2022/10/05 13:53:14;;;;;;;8.45;3.60;;;17.30;99.90;;;;;;4836051;29;20049;-65
2022/10/05 13:55:53;;;;;;;6.75;3.75;;;17.30;99.90;;;;;;4854526;29;20086;-64
2022/10/05 13:58:43;;;;;;;10.52;3.00;;;17.30;99.90;;;;;;4852123;29;20391;-63
2022/10/05 14:01:40;;;;;;;7.10;2.97;;;17.40;99.90;;;;;;4833426;29;20106;-65
2022/10/05 14:04:20;;;;;;;6.65;3.47;;;17.40;99.90;;;;;;4855343;29;20112;-63
2022/10/05 14:06:47;;;;;;;4.93;3.13;;;17.50;99.90;;;;;;4857024;29;20396;-64
2022/10/05 14:09:33;;;;;;;7.57;3.30;;;17.40;99.90;;;;;;4851512;29;20049;-63
2022/10/05 14:12:02;;;;;;;6.65;3.17;;;17.50;99.90;;;;;;4850729;29;20089;-66
2022/10/05 14:14:30;;;;;;;6.25;3.17;;;17.50;99.90;;;;;;4837151;29;20057;-65
2022/10/05 14:17:04;;;;;;;7.28;3.10;;;17.50;99.90;;;;;;4850663;29;20038;-65
2022/10/05 14:19:44;;;;;;;9.52;3.40;;;17.50;99.90;;;;;;4853228;29;20076;-65
2022/10/05 14:22:15;;;;;;;5.47;3.40;;;17.50;99.90;;;;;;4853882;29;20132;-63
2022/10/05 14:24:54;;;;;;;8.18;3.35;;;17.40;99.90;;;;;;4847345;29;20053;-64
2022/10/05 14:27:26;;;;;;;8.55;3.60;;;17.50;99.90;;;;;;4851836;29;20041;-63
2022/10/05 14:30:12;;;;;;;7.07;3.13;;;17.50;99.90;;;;;;4857100;29;20045;-63
2022/10/05 14:32:49;;;;;;;6.57;2.97;;;17.50;99.90;;;;;;4856977;29;20053;-65
2022/10/05 14:35:20;;;;;;;5.93;3.13;;;17.40;99.90;;;;;;4856746;29;20049;-64
2022/10/05 14:37:46;;;;;;;5.35;3.05;;;17.50;99.90;;;;;;4839788;29;20046;-64
2022/10/05 14:40:29;;;;;;;8.13;3.03;;;17.40;99.90;;;;;;4859231;29;20046;-64
2022/10/05 14:42:56;;;;;;;4.75;3.10;;;17.50;99.90;;;;;;4856221;29;20461;-63
2022/10/05 14:45:24;;;;;;;8.43;3.70;;;17.40;99.90;;;;;;4858136;29;20128;-68
2022/10/05 14:47:59;;;;;;;7.28;3.00;;;17.30;99.90;;;;;;4857461;29;20056;-67
2022/10/05 14:50:28;;;;;;;7.38;3.10;;;17.30;99.90;;;;;;4858465;29;20121;-64
2022/10/05 14:53:16;;;;;;;6.65;3.05;;;17.10;99.90;;;;;;4857100;29;20046;-62
2022/10/05 14:56:04;;;;;;;9.57;3.58;;;17.30;99.90;;;;;;4858324;29;20389;-64
2022/10/05 14:58:41;;;;;;;10.57;3.50;;;17.20;99.90;;;;;;4849948;29;20049;-63
2022/10/05 15:01:29;;;;;;;14.67;3.27;;;17.20;99.90;;;;;;4855886;29;20080;-64
2022/10/05 15:04:10;;;;;;;6.03;3.40;;;17.20;99.90;;;;;;4854080;29;20077;-66
2022/10/05 15:06:45;;;;;;;5.88;3.50;;;17.10;99.90;;;;;;4859357;29;20133;-65
2022/10/05 15:09:29;;;;;;;7.50;3.50;;;17.10;99.90;;;;;;4850818;29;20065;-66
2022/10/05 15:11:58;;;;;;;7.85;4.00;;;17.10;99.90;;;;;;4837088;29;20053;-64
2022/10/05 15:14:34;;;;;;;7.40;3.60;;;17.00;99.90;;;;;;4854531;29;20053;-65
2022/10/05 15:17:03;;;;;;;6.93;3.78;;;17.00;99.90;;;;;;4834424;29;20074;-64
2022/10/05 15:19:43;;;;;;;5.85;3.35;;;17.00;99.90;;;;;;4853619;29;20041;-66
2022/10/05 15:22:30;;;;;;;7.00;3.42;;;17.00;99.90;;;;;;4844316;29;20045;-65
2022/10/05 15:25:14;;;;;;;8.63;3.85;;;16.90;99.90;;;;;;4858611;29;20083;-64
2022/10/05 15:31:40;;;;;;;8.65;3.63;;;16.90;99.90;;;;;;4859702;29;20097;-64
2022/10/05 15:34:16;;;;;;;6.50;3.47;;;16.90;99.90;;;;;;4859648;29;20442;-64
2022/10/05 15:36:56;;;;;;;6.35;3.70;;;16.90;99.90;;;;;;4856619;29;20048;-64
2022/10/05 15:39:25;;;;;;;7.75;4.00;;;16.90;99.90;;;;;;4834476;29;20128;-64
2022/10/05 15:42:01;;;;;;;7.47;3.83;;;16.90;99.90;;;;;;4858154;29;20053;-64
2022/10/05 15:45:05;;;;;;;10.23;4.05;;;16.90;99.90;;;;;;4857267;29;20050;-63
2022/10/05 15:47:42;;;;;;;6.40;3.20;;;16.90;99.90;;;;;;4860043;29;20049;-64
2022/10/05 15:50:25;;;;;;;7.73;3.80;;;16.80;99.90;;;;;;4845740;29;20041;-63
2022/10/05 15:52:57;;;;;;;7.18;3.78;;;16.90;99.90;;;;;;4847404;29;20547;-64
2022/10/05 15:56:02;;;;;;;6.95;3.08;;;16.90;99.90;;;;;;4860742;29;20072;-62
2022/10/05 15:58:54;;;;;;;6.35;2.90;;;16.90;99.90;;;;;;4842296;29;20061;-64
2022/10/05 16:01:25;;;;;;;10.90;3.55;;;16.90;99.90;;;;;;4853660;29;20462;-64
2022/10/05 16:04:04;;;;;;;9.55;3.05;;;16.90;99.90;;;;;;4850487;29;20998;-65
2022/10/05 16:10:02;;;;;;;9.73;2.45;;;17.00;99.90;;;;;;4796896;29;20138;-65
2022/10/05 16:13:20;;;;;;;8.45;2.25;;;17.00;99.90;;;;;;4853946;29;20065;-64
2022/10/05 16:15:52;;;;;;;9.32;2.20;;;17.00;99.90;;;;;;4781580;29;20092;-62